Elmora, New Jersey
Current Conditions -  °F | °C
As of 3:35 PM on Thursday 29 Jan 2015 (Local Time) from KLDJ Reporting Station
Broken Clouds Broken Clouds  
Wind Chill: 28°   Ceiling: 10000
Heat Index: 33°   Visibility: 10mi
Dew Point: 21°   Wind: 6mph
Humidity: 62%   Direction: 140°SE
Pressure: 30.19"   Gusts: NA
Location:  40.6531°N, 74.2169°W
Report Text: KLDJ 292035Z AUTO 14005KT 10SM BKN100 01/M06 A3019 RMK AO2 T00071059
Loading
Personal Weather Stations






























Interactive Weather Map New forecast layout! Learn more

10-Day Weather Forecast

Advertisements
Track Severe Weather on mobile